Time;durP1;ratioP1;P1;durP2;ratioP2;P2;SDS_P1;SDS_P2;PMS_P1;PMS_P2;Temp;Humidity;BMP_temperature;BMP_pressure;BME280_temperature;BME280_humidity;BME280_pressure;Samples;Min_cycle;Max_cycle;Signal;HPM_P1;HPM_P2
2021/09/23 00:00:28;;;;;;;9.18;5.07;;;11.60;98.20;;;;;;5027391;28;20178;-79
2021/09/23 00:05:23;;;;;;;9.43;5.25;;;11.60;98.50;;;;;;5046017;28;20190;-79
2021/09/23 00:07:51;;;;;;;10.25;4.97;;;11.50;98.80;;;;;;5026452;28;20654;-79
2021/09/23 00:10:21;;;;;;;7.97;5.60;;;11.50;98.80;;;;;;5026073;28;20277;-79
2021/09/23 00:12:48;;;;;;;9.77;5.40;;;11.50;98.50;;;;;;5027153;28;20862;-78
2021/09/23 00:15:15;;;;;;;19.15;7.95;;;11.50;98.40;;;;;;5025879;28;20212;-79
2021/09/23 00:17:49;;;;;;;8.68;4.55;;;11.50;98.40;;;;;;5027980;28;20186;-79
2021/09/23 00:20:25;;;;;;;9.50;4.68;;;11.50;98.60;;;;;;5028305;28;20184;-78
2021/09/23 00:22:51;;;;;;;11.52;4.90;;;11.50;98.90;;;;;;5027249;28;20189;-79
2021/09/23 00:25:18;;;;;;;7.43;4.70;;;11.50;98.90;;;;;;5027718;28;20189;-79
2021/09/23 00:27:44;;;;;;;8.63;4.43;;;11.40;98.70;;;;;;5071046;23;20594;-79
2021/09/23 00:30:11;;;;;;;10.98;5.45;;;11.40;98.80;;;;;;4996373;28;20229;-79
2021/09/23 00:32:37;;;;;;;13.77;5.20;;;11.40;99.10;;;;;;4995856;28;20183;-79
2021/09/23 00:35:05;;;;;;;9.05;5.30;;;11.30;99.10;;;;;;4995515;28;20274;-78
2021/09/23 00:37:31;;;;;;;19.95;7.18;;;11.30;99.10;;;;;;4995772;28;20570;-78
2021/09/23 00:39:57;;;;;;;14.63;7.65;;;11.20;99.10;;;;;;4996042;28;20182;-78
2021/09/23 00:42:23;;;;;;;12.03;7.13;;;11.10;99.10;;;;;;4995604;28;20202;-79
2021/09/23 00:44:57;;;;;;;15.40;9.07;;;11.10;99.10;;;;;;4995359;28;20171;-79
2021/09/23 00:47:23;;;;;;;17.48;7.05;;;11.20;99.10;;;;;;4995192;28;20179;-79
2021/09/23 00:49:49;;;;;;;11.17;6.20;;;11.20;99.10;;;;;;4995380;28;20171;-79
2021/09/23 00:52:15;;;;;;;14.52;5.97;;;11.20;99.10;;;;;;4996889;28;20425;-79
2021/09/23 00:54:42;;;;;;;16.00;8.23;;;11.20;99.10;;;;;;4998598;28;20646;-79
2021/09/23 00:57:08;;;;;;;29.30;8.25;;;11.20;99.10;;;;;;4998835;28;20595;-78
2021/09/23 00:59:34;;;;;;;14.17;7.50;;;11.20;99.10;;;;;;4998762;28;20198;-78
2021/09/23 01:02:00;;;;;;;18.02;7.40;;;11.20;99.10;;;;;;4998809;28;20460;-79
2021/09/23 01:04:26;;;;;;;11.30;7.00;;;11.20;99.10;;;;;;4998918;28;20326;-78
2021/09/23 01:06:52;;;;;;;17.60;7.67;;;11.20;99.10;;;;;;4998595;28;20194;-79
2021/09/23 01:09:18;;;;;;;17.15;8.15;;;11.20;99.10;;;;;;4998957;28;20940;-79
2021/09/23 01:11:44;;;;;;;14.43;6.80;;;11.20;99.10;;;;;;4999246;28;20628;-78
2021/09/23 01:14:13;;;;;;;12.27;7.00;;;11.20;99.10;;;;;;4999046;28;20227;-79
2021/09/23 01:16:39;;;;;;;13.13;6.85;;;11.20;99.10;;;;;;4998438;28;20466;-79
2021/09/23 01:19:05;;;;;;;15.53;6.50;;;11.10;99.10;;;;;;4998417;28;20265;-79
2021/09/23 01:21:30;;;;;;;15.50;6.60;;;11.20;99.10;;;;;;4998729;28;20175;-78
2021/09/23 01:23:56;;;;;;;13.90;6.70;;;11.20;99.10;;;;;;4998419;28;20194;-78
2021/09/23 01:26:26;;;;;;;13.02;6.32;;;11.10;99.10;;;;;;4998149;28;20480;-79
2021/09/23 01:28:56;;;;;;;10.65;5.65;;;11.10;99.10;;;;;;4998890;28;20252;-79
2021/09/23 01:31:22;;;;;;;11.98;6.05;;;11.00;99.10;;;;;;4998632;28;20228;-79
2021/09/23 01:33:52;;;;;;;14.10;6.05;;;11.00;99.10;;;;;;4998446;28;20170;-79
2021/09/23 01:36:18;;;;;;;18.02;7.55;;;11.00;99.10;;;;;;4998122;28;20285;-79
2021/09/23 01:38:43;;;;;;;16.00;6.30;;;11.00;99.10;;;;;;4998333;28;20206;-79
2021/09/23 01:41:11;;;;;;;10.73;5.20;;;11.00;99.10;;;;;;4998377;28;20925;-79
2021/09/23 01:43:37;;;;;;;11.25;5.80;;;11.00;99.10;;;;;;4998196;28;20855;-79
2021/09/23 01:46:02;;;;;;;11.50;5.80;;;10.90;99.10;;;;;;4998051;28;20194;-79
2021/09/23 01:48:28;;;;;;;15.07;6.50;;;10.90;99.10;;;;;;4998186;28;20921;-79
2021/09/23 01:50:54;;;;;;;16.07;5.90;;;10.90;99.10;;;;;;4997769;28;20414;-79
2021/09/23 01:53:20;;;;;;;11.83;5.90;;;10.90;99.10;;;;;;4997551;28;20270;-79
2021/09/23 01:55:45;;;;;;;9.07;5.60;;;10.90;99.10;;;;;;4997556;28;20953;-79
2021/09/23 01:58:11;;;;;;;16.03;8.17;;;10.80;99.10;;;;;;4997503;28;20429;-78
2021/09/23 02:00:37;;;;;;;10.60;5.90;;;10.80;99.10;;;;;;4998107;28;20425;-79
2021/09/23 02:03:03;;;;;;;12.30;6.20;;;10.80;99.00;;;;;;4997187;28;20202;-78
2021/09/23 02:05:29;;;;;;;7.80;4.70;;;10.80;99.00;;;;;;4997286;28;20430;-78
2021/09/23 02:07:54;;;;;;;16.20;5.67;;;10.80;99.10;;;;;;4996910;28;20428;-78
2021/09/23 02:10:21;;;;;;;12.97;5.90;;;10.80;99.10;;;;;;4997472;28;20459;-78
2021/09/23 02:12:46;;;;;;;13.30;6.03;;;10.80;99.10;;;;;;4997390;28;20175;-78
2021/09/23 02:15:12;;;;;;;14.33;5.20;;;10.80;99.10;;;;;;5014564;28;20209;-78
2021/09/23 02:17:38;;;;;;;16.73;8.20;;;10.70;99.00;;;;;;4996985;28;20418;-79
2021/09/23 02:20:05;;;;;;;10.40;5.95;;;10.70;99.10;;;;;;4997093;28;20194;-79
2021/09/23 02:22:32;;;;;;;10.13;5.18;;;10.60;99.10;;;;;;4996846;28;20202;-78
2021/09/23 02:24:58;;;;;;;10.40;5.60;;;10.60;99.10;;;;;;4996512;28;20662;-78
2021/09/23 02:27:24;;;;;;;15.60;6.50;;;10.60;99.10;;;;;;4996598;28;20188;-79
2021/09/23 02:29:49;;;;;;;12.07;5.90;;;10.60;99.10;;;;;;4996674;28;20516;-79
2021/09/23 02:32:15;;;;;;;10.03;6.10;;;10.60;99.10;;;;;;4996676;28;20228;-79
2021/09/23 02:34:41;;;;;;;12.10;5.87;;;10.60;99.10;;;;;;4996262;28;20181;-78
2021/09/23 02:37:07;;;;;;;17.80;5.63;;;10.60;99.10;;;;;;4996752;28;20282;-78
2021/09/23 02:39:34;;;;;;;10.63;5.85;;;10.50;99.10;;;;;;4996796;28;20170;-79
2021/09/23 02:42:00;;;;;;;9.70;5.72;;;10.40;99.10;;;;;;4996221;28;20301;-78
2021/09/23 02:44:26;;;;;;;13.63;5.20;;;10.40;99.10;;;;;;4996668;28;20214;-78
2021/09/23 02:46:51;;;;;;;11.50;5.63;;;10.40;99.10;;;;;;4996474;28;20217;-78
2021/09/23 02:49:17;;;;;;;9.77;5.20;;;10.40;99.10;;;;;;4996500;28;20417;-78
2021/09/23 02:51:43;;;;;;;13.00;6.33;;;10.40;99.10;;;;;;4996473;28;20232;-78
2021/09/23 02:54:09;;;;;;;10.35;5.25;;;10.40;99.10;;;;;;4996434;28;20177;-78
2021/09/23 02:56:35;;;;;;;11.95;6.10;;;10.40;99.10;;;;;;4996731;28;20217;-80
2021/09/23 02:59:01;;;;;;;12.83;5.87;;;10.40;99.10;;;;;;4996641;28;20638;-79
2021/09/23 03:01:27;;;;;;;11.65;5.80;;;10.30;99.10;;;;;;4996533;28;20433;-79
2021/09/23 03:03:53;;;;;;;12.38;6.63;;;10.30;99.10;;;;;;4996505;28;20174;-80
2021/09/23 03:06:18;;;;;;;15.97;7.63;;;10.30;99.10;;;;;;4996632;28;20193;-80
2021/09/23 03:08:44;;;;;;;12.63;6.30;;;10.20;99.10;;;;;;4995943;28;20265;-80
2021/09/23 03:11:10;;;;;;;20.87;6.77;;;10.20;99.10;;;;;;4996581;28;20171;-80
2021/09/23 03:13:36;;;;;;;13.50;6.93;;;10.20;99.10;;;;;;4996393;28;20185;-79
2021/09/23 03:16:02;;;;;;;16.40;6.50;;;10.20;99.10;;;;;;4995969;28;20429;-81
2021/09/23 03:18:27;;;;;;;9.97;5.40;;;10.20;99.10;;;;;;4996434;28;20413;-79
2021/09/23 03:20:53;;;;;;;12.83;7.13;;;10.20;99.10;;;;;;4996290;28;20421;-78
2021/09/23 03:23:19;;;;;;;14.70;6.77;;;10.10;99.10;;;;;;4996082;28;20457;-79
2021/09/23 03:25:45;;;;;;;14.83;7.73;;;10.20;99.10;;;;;;4996061;28;21207;-79
2021/09/23 03:28:12;;;;;;;16.92;7.70;;;10.10;99.10;;;;;;4996353;28;20182;-80
2021/09/23 03:30:38;;;;;;;14.68;6.90;;;10.10;99.10;;;;;;4996223;28;20166;-79
2021/09/23 03:33:06;;;;;;;17.17;7.23;;;10.10;99.10;;;;;;4995688;28;20182;-78
2021/09/23 03:35:32;;;;;;;13.20;6.85;;;10.20;99.10;;;;;;4995767;28;20503;-79
2021/09/23 03:37:58;;;;;;;15.57;8.20;;;10.10;99.10;;;;;;4996123;28;20183;-78
2021/09/23 03:40:24;;;;;;;19.83;7.00;;;10.10;99.10;;;;;;4995803;28;20225;-79
2021/09/23 03:42:50;;;;;;;17.75;8.40;;;10.10;99.10;;;;;;4996298;28;20301;-78
2021/09/23 03:45:15;;;;;;;18.07;9.37;;;10.10;99.10;;;;;;4996143;28;20285;-79
2021/09/23 03:47:41;;;;;;;19.03;8.93;;;10.00;99.10;;;;;;4995778;28;20417;-79
2021/09/23 03:50:08;;;;;;;16.37;8.80;;;10.00;99.10;;;;;;4995961;28;20410;-79
2021/09/23 03:52:34;;;;;;;16.50;7.90;;;10.10;99.10;;;;;;4995822;28;20248;-78
2021/09/23 03:54:59;;;;;;;18.03;8.00;;;10.10;99.10;;;;;;4996102;28;20787;-78
2021/09/23 03:57:27;;;;;;;14.20;8.83;;;10.10;99.10;;;;;;4996098;28;20581;-78
2021/09/23 03:59:53;;;;;;;14.60;7.38;;;10.10;99.10;;;;;;4995817;28;20188;-79
2021/09/23 04:02:19;;;;;;;21.58;8.70;;;10.10;99.10;;;;;;4995697;28;20202;-79
2021/09/23 04:04:44;;;;;;;12.70;7.78;;;10.00;99.10;;;;;;4995990;28;20695;-78
2021/09/23 04:07:10;;;;;;;19.60;8.10;;;10.00;99.10;;;;;;4996192;28;20275;-79
2021/09/23 04:09:36;;;;;;;19.50;7.90;;;10.00;99.10;;;;;;4996158;28;20996;-78
2021/09/23 04:12:02;;;;;;;17.52;7.47;;;10.00;99.10;;;;;;4995716;28;20664;-79
2021/09/23 04:14:28;;;;;;;20.90;10.07;;;10.00;99.10;;;;;;5013325;28;20183;-78
2021/09/23 04:16:54;;;;;;;23.73;9.57;;;10.00;99.10;;;;;;4996000;28;20199;-78
2021/09/23 04:19:20;;;;;;;15.13;8.52;;;9.90;99.10;;;;;;4995745;28;20413;-78
2021/09/23 04:21:46;;;;;;;16.87;8.97;;;9.90;99.10;;;;;;4995687;28;20177;-78
2021/09/23 04:24:12;;;;;;;23.25;9.90;;;9.80;99.10;;;;;;4995759;28;20409;-78
2021/09/23 04:26:38;;;;;;;22.25;9.63;;;9.80;99.10;;;;;;4996547;28;20260;-78
2021/09/23 04:29:04;;;;;;;13.33;7.50;;;9.80;99.10;;;;;;4999461;28;20170;-79
2021/09/23 04:31:30;;;;;;;21.00;8.57;;;9.80;99.10;;;;;;4999464;28;20166;-79
2021/09/23 04:33:55;;;;;;;27.58;10.25;;;9.80;99.10;;;;;;4999395;28;20437;-79
2021/09/23 04:36:21;;;;;;;20.97;10.83;;;9.80;99.10;;;;;;4999179;28;20194;-79
2021/09/23 04:38:47;;;;;;;23.08;10.25;;;9.70;99.10;;;;;;4999077;28;20926;-79
2021/09/23 04:41:13;;;;;;;20.40;10.00;;;9.70;99.10;;;;;;4999280;28;20189;-79
2021/09/23 04:43:41;;;;;;;23.80;9.67;;;9.80;99.10;;;;;;4999312;28;20205;-78
2021/09/23 04:46:08;;;;;;;22.25;10.13;;;9.70;99.10;;;;;;4999320;28;20584;-78
2021/09/23 04:48:34;;;;;;;25.83;9.77;;;9.80;99.10;;;;;;4999578;28;20631;-78
2021/09/23 04:51:00;;;;;;;23.73;9.02;;;9.70;99.10;;;;;;4999316;28;20171;-78
2021/09/23 04:53:26;;;;;;;19.07;9.53;;;9.70;99.10;;;;;;4999025;28;20198;-78
2021/09/23 04:55:52;;;;;;;18.37;8.53;;;9.70;99.10;;;;;;4999209;28;20439;-78
2021/09/23 04:58:17;;;;;;;25.93;9.70;;;9.70;99.10;;;;;;4999471;28;20237;-78
2021/09/23 05:00:43;;;;;;;20.10;9.63;;;9.60;99.10;;;;;;4999382;28;20189;-78
2021/09/23 05:03:11;;;;;;;19.77;9.90;;;9.60;99.10;;;;;;4999021;28;20198;-78
2021/09/23 05:05:38;;;;;;;19.92;10.60;;;9.50;99.10;;;;;;4999082;28;20443;-78
2021/09/23 05:08:04;;;;;;;21.65;10.27;;;9.50;99.10;;;;;;4999160;28;20174;-78
2021/09/23 05:10:30;;;;;;;13.67;8.87;;;9.50;99.10;;;;;;4999449;28;20166;-78
2021/09/23 05:12:56;;;;;;;16.37;9.47;;;9.40;99.10;;;;;;4999577;28;20409;-78
2021/09/23 05:15:22;;;;;;;18.88;9.25;;;9.40;99.10;;;;;;4998538;28;20810;-79
2021/09/23 05:17:48;;;;;;;21.07;9.77;;;9.40;99.10;;;;;;4999400;28;20832;-78
2021/09/23 05:20:15;;;;;;;29.98;10.70;;;9.40;99.10;;;;;;4999062;28;20484;-78
2021/09/23 05:22:41;;;;;;;24.90;10.43;;;9.30;99.10;;;;;;4999140;28;20208;-79
2021/09/23 05:25:08;;;;;;;16.45;9.07;;;9.30;99.10;;;;;;4998243;28;20282;-78
2021/09/23 05:27:34;;;;;;;19.75;9.73;;;9.30;99.10;;;;;;4998449;28;20348;-78
2021/09/23 05:30:00;;;;;;;22.00;10.00;;;9.30;99.10;;;;;;4998337;28;20290;-79
2021/09/23 05:32:27;;;;;;;18.63;9.55;;;9.30;99.10;;;;;;4998796;28;20830;-79
2021/09/23 05:34:53;;;;;;;22.02;11.00;;;9.30;99.10;;;;;;4998300;28;20178;-78
2021/09/23 05:37:19;;;;;;;25.70;10.00;;;9.40;99.10;;;;;;4997797;28;20178;-78
2021/09/23 05:39:45;;;;;;;24.10;9.52;;;9.40;99.10;;;;;;4998717;28;20421;-78
2021/09/23 05:42:10;;;;;;;21.50;11.00;;;9.40;99.10;;;;;;4998619;28;20210;-78
2021/09/23 05:44:36;;;;;;;17.60;9.00;;;9.40;99.10;;;;;;4998213;28;20183;-79
2021/09/23 05:47:02;;;;;;;20.23;10.00;;;9.30;99.10;;;;;;4998331;28;20587;-79
2021/09/23 05:49:28;;;;;;;22.20;9.70;;;9.30;99.10;;;;;;4998092;28;20406;-78
2021/09/23 05:51:56;;;;;;;20.70;9.27;;;9.30;99.10;;;;;;4998429;28;20658;-78
2021/09/23 05:54:22;;;;;;;22.13;10.90;;;9.30;99.10;;;;;;4997996;28;20175;-79
2021/09/23 05:56:48;;;;;;;28.42;11.25;;;9.40;99.10;;;;;;4998074;28;20198;-78
2021/09/23 05:59:14;;;;;;;22.10;10.37;;;9.40;99.10;;;;;;4997931;28;20615;-78
2021/09/23 06:01:40;;;;;;;24.87;10.73;;;9.40;99.10;;;;;;4997929;28;20441;-78
2021/09/23 06:04:06;;;;;;;19.20;10.30;;;9.50;99.10;;;;;;4997422;28;20414;-78
2021/09/23 06:06:31;;;;;;;23.87;10.97;;;9.50;99.10;;;;;;4997446;28;20442;-78
2021/09/23 06:08:57;;;;;;;25.07;9.90;;;9.50;99.10;;;;;;4997918;28;20224;-78
2021/09/23 06:11:23;;;;;;;15.00;8.83;;;9.60;99.10;;;;;;4997930;28;20456;-78
2021/09/23 06:13:49;;;;;;;19.17;9.00;;;9.60;99.10;;;;;;4997570;28;20178;-78
2021/09/23 06:16:15;;;;;;;29.87;12.23;;;9.60;99.10;;;;;;4997775;28;20437;-78
2021/09/23 06:18:40;;;;;;;26.63;11.30;;;9.50;99.10;;;;;;4998177;28;20216;-78
2021/09/23 06:21:07;;;;;;;19.90;11.00;;;9.60;99.10;;;;;;4997757;28;20448;-78
2021/09/23 06:23:34;;;;;;;22.15;9.98;;;9.60;99.10;;;;;;4997390;28;20202;-78
2021/09/23 06:26:00;;;;;;;24.13;10.40;;;9.70;99.10;;;;;;4997610;28;20568;-78
2021/09/23 06:28:26;;;;;;;26.67;10.52;;;9.70;99.10;;;;;;4999122;28;20226;-80
2021/09/23 06:30:51;;;;;;;27.00;11.10;;;9.70;99.10;;;;;;4998818;28;20206;-80
2021/09/23 06:33:17;;;;;;;26.00;10.80;;;9.80;99.10;;;;;;4998567;28;20183;-80
2021/09/23 06:35:43;;;;;;;29.00;11.10;;;9.80;99.10;;;;;;4998984;28;20457;-80
2021/09/23 06:38:09;;;;;;;25.00;9.80;;;9.80;99.10;;;;;;4998838;28;20174;-80
2021/09/23 06:40:35;;;;;;;29.23;10.57;;;9.90;99.10;;;;;;4998487;28;20181;-80
2021/09/23 06:43:01;;;;;;;29.67;11.85;;;10.00;99.10;;;;;;4998244;28;20540;-80
2021/09/23 06:45:27;;;;;;;31.67;11.70;;;10.10;99.10;;;;;;5000690;28;20236;-80
2021/09/23 06:47:54;;;;;;;30.05;12.65;;;10.20;99.10;;;;;;4984592;28;20205;-80
2021/09/23 06:50:19;;;;;;;28.17;13.10;;;10.30;99.10;;;;;;4997199;28;20171;-80
2021/09/23 06:52:45;;;;;;;23.60;11.43;;;10.30;99.10;;;;;;4998213;28;20205;-80
2021/09/23 06:55:11;;;;;;;33.53;13.40;;;10.40;99.10;;;;;;4998923;28;20220;-80
2021/09/23 06:57:37;;;;;;;25.98;13.65;;;10.50;99.10;;;;;;4998013;28;20917;-80
2021/09/23 07:00:04;;;;;;;32.03;14.38;;;10.50;99.10;;;;;;4998385;28;20265;-80
2021/09/23 07:02:30;;;;;;;33.97;13.50;;;10.60;99.10;;;;;;4998027;28;20209;-80
2021/09/23 07:04:56;;;;;;;29.47;14.10;;;10.70;99.10;;;;;;4997581;28;20171;-80
2021/09/23 07:07:22;;;;;;;33.20;15.30;;;10.80;99.10;;;;;;4998498;28;20589;-80
2021/09/23 07:09:47;;;;;;;37.00;13.77;;;10.90;99.10;;;;;;4998404;28;20272;-80
2021/09/23 07:12:13;;;;;;;34.80;13.90;;;11.00;99.10;;;;;;4999631;28;20426;-80
2021/09/23 07:14:40;;;;;;;28.00;11.80;;;11.10;99.10;;;;;;4998060;28;20420;-80
2021/09/23 07:17:06;;;;;;;22.15;10.73;;;11.20;99.10;;;;;;4998268;28;20190;-80
2021/09/23 07:19:32;;;;;;;26.47;10.90;;;11.30;99.10;;;;;;4998751;28;20201;-80
2021/09/23 07:21:58;;;;;;;23.43;11.50;;;11.40;99.10;;;;;;4998730;28;20511;-80
2021/09/23 07:24:24;;;;;;;34.08;13.25;;;11.50;99.10;;;;;;4998243;28;20492;-80
2021/09/23 07:26:50;;;;;;;35.85;12.88;;;11.60;99.10;;;;;;4998494;28;20206;-80
2021/09/23 07:29:17;;;;;;;30.35;11.50;;;11.60;99.10;;;;;;4998768;28;20170;-80
2021/09/23 07:31:44;;;;;;;27.55;12.18;;;11.70;99.10;;;;;;4998160;28;20166;-80
2021/09/23 07:34:13;;;;;;;27.40;12.02;;;11.70;99.00;;;;;;4998243;28;20548;-80
2021/09/23 07:36:39;;;;;;;20.05;11.15;;;11.80;99.00;;;;;;4998260;28;20197;-80
2021/09/23 07:39:09;;;;;;;24.38;11.55;;;11.90;98.50;;;;;;4997527;28;20258;-80
2021/09/23 07:41:37;;;;;;;27.20;12.07;;;12.00;98.10;;;;;;4997720;28;20170;-80
2021/09/23 07:44:08;;;;;;;33.15;12.25;;;12.10;98.70;;;;;;4997757;28;20201;-80
2021/09/23 07:46:34;;;;;;;24.92;11.75;;;12.20;98.30;;;;;;4996985;28;20733;-80
2021/09/23 07:49:00;;;;;;;32.08;13.30;;;12.30;97.60;;;;;;4997108;28;20638;-80
2021/09/23 07:51:26;;;;;;;25.00;11.50;;;12.40;97.50;;;;;;4996766;28;20166;-80
2021/09/23 07:53:52;;;;;;;23.38;9.30;;;12.50;97.40;;;;;;4997844;28;20577;-80
2021/09/23 07:56:19;;;;;;;28.42;12.32;;;12.70;97.20;;;;;;4997360;28;20245;-80
2021/09/23 07:58:45;;;;;;;26.77;10.70;;;12.80;97.00;;;;;;4997288;28;20170;-80
2021/09/23 08:01:10;;;;;;;24.25;11.77;;;12.90;95.90;;;;;;4999347;28;20232;-80
2021/09/23 08:03:36;;;;;;;32.03;12.53;;;12.90;95.30;;;;;;5001269;28;20610;-80
2021/09/23 08:06:02;;;;;;;40.30;14.00;;;13.00;95.60;;;;;;5001769;28;20847;-80
2021/09/23 08:08:28;;;;;;;29.83;10.37;;;13.10;95.70;;;;;;5001892;28;20177;-80
2021/09/23 08:10:54;;;;;;;26.87;12.87;;;13.20;95.40;;;;;;5001752;28;20421;-80
2021/09/23 08:13:20;;;;;;;37.77;13.90;;;13.40;95.80;;;;;;5001305;28;20182;-80
2021/09/23 08:15:45;;;;;;;21.20;9.93;;;13.40;95.50;;;;;;5001188;28;20205;-80
2021/09/23 08:18:12;;;;;;;28.93;10.70;;;13.60;95.10;;;;;;5001634;28;20206;-80
2021/09/23 08:20:39;;;;;;;22.23;11.07;;;13.80;94.70;;;;;;5002571;28;20471;-80
2021/09/23 08:23:05;;;;;;;23.10;10.88;;;13.90;93.60;;;;;;5001346;28;20205;-80
2021/09/23 08:25:32;;;;;;;25.88;11.48;;;14.00;93.20;;;;;;5000968;28;20195;-80
2021/09/23 08:27:59;;;;;;;19.55;10.70;;;14.10;93.10;;;;;;5001683;28;20191;-80
2021/09/23 08:30:25;;;;;;;32.28;12.57;;;14.20;93.50;;;;;;5002297;28;20179;-80
2021/09/23 08:32:51;;;;;;;29.73;12.48;;;14.30;92.80;;;;;;5002076;28;20209;-80
2021/09/23 08:35:17;;;;;;;32.45;12.25;;;14.40;92.20;;;;;;5000738;28;20676;-80
2021/09/23 08:37:44;;;;;;;26.90;11.20;;;14.60;92.40;;;;;;5001127;28;20170;-80
2021/09/23 08:40:11;;;;;;;21.95;9.40;;;14.70;92.30;;;;;;5001243;28;20635;-80
2021/09/23 08:42:41;;;;;;;27.45;10.48;;;14.80;92.00;;;;;;5001143;28;20199;-80
2021/09/23 08:45:09;;;;;;;24.98;11.52;;;15.00;91.90;;;;;;5000739;28;20264;-80
2021/09/23 08:47:35;;;;;;;34.03;10.98;;;15.20;91.60;;;;;;5000830;28;20538;-80
2021/09/23 08:50:03;;;;;;;30.30;10.63;;;15.30;91.40;;;;;;5000762;28;20170;-80
2021/09/23 08:52:29;;;;;;;26.17;10.45;;;15.50;91.40;;;;;;5000801;28;20418;-80
2021/09/23 08:54:55;;;;;;;24.88;10.82;;;15.60;89.80;;;;;;5000668;28;20197;-80
2021/09/23 08:57:21;;;;;;;21.83;10.13;;;15.80;89.10;;;;;;5000711;28;20182;-80
2021/09/23 08:59:47;;;;;;;20.70;9.37;;;16.00;87.80;;;;;;5000934;28;20167;-81
2021/09/23 09:02:27;;;;;;;26.27;8.63;;;16.10;85.50;;;;;;5000558;28;20456;-80
2021/09/23 09:04:55;;;;;;;19.85;9.80;;;16.20;85.90;;;;;;5000310;28;20406;-81
2021/09/23 09:07:27;;;;;;;28.60;9.95;;;16.30;87.30;;;;;;5000396;28;20556;-81
2021/09/23 09:10:01;;;;;;;18.98;7.97;;;16.40;85.60;;;;;;5001076;28;20593;-81
2021/09/23 09:12:29;;;;;;;34.95;10.43;;;16.60;84.90;;;;;;5000963;28;20225;-81
2021/09/23 09:14:56;;;;;;;14.85;7.30;;;16.70;83.50;;;;;;4999706;28;20179;-81
2021/09/23 09:17:22;;;;;;;21.90;7.35;;;16.80;82.40;;;;;;5000064;28;20747;-81
2021/09/23 09:19:48;;;;;;;25.77;6.53;;;16.90;82.60;;;;;;4999625;28;20186;-81
2021/09/23 09:22:20;;;;;;;11.30;5.53;;;17.10;82.80;;;;;;4999723;28;20266;-81
2021/09/23 09:24:50;;;;;;;14.80;5.97;;;17.30;81.70;;;;;;4999252;28;20559;-81
2021/09/23 09:27:40;;;;;;;11.77;6.85;;;17.50;81.70;;;;;;4999692;28;20202;-81
2021/09/23 09:30:11;;;;;;;17.02;6.47;;;17.70;79.60;;;;;;4999969;28;20265;-81
2021/09/23 09:32:48;;;;;;;19.42;6.47;;;17.90;79.40;;;;;;4999640;28;20175;-81
2021/09/23 09:35:18;;;;;;;9.90;6.07;;;18.00;80.20;;;;;;4999737;28;20202;-81
2021/09/23 09:37:47;;;;;;;13.75;5.40;;;18.20;77.40;;;;;;4999741;28;20179;-81
2021/09/23 09:40:27;;;;;;;15.30;5.75;;;18.40;78.10;;;;;;4999048;28;20185;-81
2021/09/23 09:42:54;;;;;;;13.82;6.35;;;18.50;77.70;;;;;;4999502;28;20201;-80
2021/09/23 09:45:23;;;;;;;11.30;6.15;;;18.60;77.30;;;;;;4999033;28;20187;-81
2021/09/23 09:47:52;;;;;;;12.45;6.30;;;18.80;76.70;;;;;;4999699;28;20170;-81
2021/09/23 09:50:27;;;;;;;21.35;7.75;;;18.90;75.10;;;;;;4999190;28;20173;-81
2021/09/23 09:52:59;;;;;;;10.18;5.07;;;19.10;76.40;;;;;;4999507;28;20190;-81
2021/09/23 09:55:30;;;;;;;16.88;6.15;;;19.30;75.20;;;;;;4999152;28;20360;-81
2021/09/23 09:57:57;;;;;;;19.95;6.32;;;19.40;73.90;;;;;;4998965;28;20212;-81
2021/09/23 10:00:26;;;;;;;13.25;5.80;;;19.50;74.60;;;;;;4999212;28;20175;-81
2021/09/23 10:02:52;;;;;;;11.85;6.50;;;19.60;74.90;;;;;;4999253;28;20197;-81
2021/09/23 10:05:20;;;;;;;9.95;5.35;;;19.60;74.40;;;;;;4998434;28;20217;-81
2021/09/23 10:07:49;;;;;;;16.50;6.05;;;19.70;73.90;;;;;;4998101;28;20209;-81
2021/09/23 10:10:20;;;;;;;9.70;5.30;;;19.90;73.10;;;;;;4999001;28;20175;-81
2021/09/23 10:12:48;;;;;;;11.40;6.32;;;20.00;73.70;;;;;;4999114;28;20360;-81
2021/09/23 10:15:16;;;;;;;13.80;5.78;;;20.20;72.10;;;;;;4999002;28;20175;-81
2021/09/23 10:17:43;;;;;;;12.27;5.78;;;20.30;72.80;;;;;;4999377;28;20175;-82
2021/09/23 10:20:10;;;;;;;9.15;5.50;;;20.50;70.90;;;;;;4999213;28;20190;-81
2021/09/23 10:22:36;;;;;;;7.93;4.93;;;20.60;70.90;;;;;;4998857;28;20202;-81
2021/09/23 10:25:05;;;;;;;11.27;5.97;;;20.80;70.60;;;;;;4998802;28;20568;-81
2021/09/23 10:30:18;;;;;;;9.45;4.82;;;21.10;69.20;;;;;;5016739;28;20256;-81
2021/09/23 10:32:45;;;;;;;9.02;4.53;;;21.20;67.30;;;;;;4998457;28;20181;-81
2021/09/23 10:35:22;;;;;;;8.13;4.20;;;21.30;67.40;;;;;;4998596;28;20225;-81
2021/09/23 10:37:49;;;;;;;4.15;2.72;;;21.50;66.40;;;;;;4997660;28;20677;-79
2021/09/23 10:40:17;;;;;;;5.35;3.35;;;21.60;65.10;;;;;;4997155;28;20232;-79
2021/09/23 10:42:44;;;;;;;9.43;4.38;;;21.70;64.40;;;;;;4996897;28;20206;-79
2021/09/23 10:45:10;;;;;;;6.43;3.25;;;21.90;63.80;;;;;;4996965;28;20776;-79
2021/09/23 10:47:36;;;;;;;6.00;3.55;;;22.10;63.10;;;;;;4996846;28;20209;-79
2021/09/23 10:50:05;;;;;;;4.72;3.20;;;22.20;62.10;;;;;;4997230;28;20174;-79
2021/09/23 10:52:34;;;;;;;4.93;2.40;;;22.40;62.00;;;;;;4997069;28;20250;-79
2021/09/23 10:55:02;;;;;;;10.75;4.00;;;22.50;62.10;;;;;;4996335;28;20225;-79
2021/09/23 10:57:30;;;;;;;7.07;3.40;;;22.50;60.60;;;;;;4996858;28;20262;-79
2021/09/23 10:59:58;;;;;;;9.10;3.20;;;22.70;61.60;;;;;;4997177;28;20205;-79
2021/09/23 11:02:29;;;;;;;6.55;3.20;;;22.90;63.00;;;;;;4997047;28;20260;-79
2021/09/23 11:04:58;;;;;;;8.32;3.60;;;23.20;60.10;;;;;;4996794;28;20173;-79
2021/09/23 11:07:25;;;;;;;7.65;3.60;;;23.30;59.30;;;;;;4996958;28;20181;-79
2021/09/23 11:10:05;;;;;;;4.78;3.38;;;23.30;59.40;;;;;;4996841;28;20511;-79
2021/09/23 11:12:31;;;;;;;6.60;3.58;;;23.40;58.80;;;;;;4997556;28;20178;-79
2021/09/23 11:14:58;;;;;;;10.25;4.03;;;23.50;59.10;;;;;;4996506;28;20182;-79
2021/09/23 11:17:28;;;;;;;10.20;4.10;;;23.70;59.10;;;;;;4996451;28;20182;-79
2021/09/23 11:20:00;;;;;;;9.00;3.53;;;23.90;57.90;;;;;;4997128;28;20170;-79
2021/09/23 11:22:35;;;;;;;15.25;3.70;;;24.00;57.10;;;;;;4996768;28;20202;-79
2021/09/23 11:25:03;;;;;;;7.72;3.78;;;24.20;55.70;;;;;;4996497;28;20181;-79
2021/09/23 11:27:29;;;;;;;9.30;4.18;;;24.40;55.80;;;;;;4996689;28;20281;-79
2021/09/23 11:29:55;;;;;;;10.55;3.90;;;24.50;57.00;;;;;;4996735;28;20174;-79
2021/09/23 11:32:22;;;;;;;4.90;2.50;;;24.60;55.90;;;;;;4996755;28;20345;-79
2021/09/23 11:34:59;;;;;;;13.15;2.90;;;24.70;56.00;;;;;;4996797;28;20174;-79
2021/09/23 11:37:31;;;;;;;3.65;2.72;;;24.90;54.30;;;;;;4996910;28;20574;-79
2021/09/23 11:39:59;;;;;;;5.38;3.17;;;25.00;53.90;;;;;;4996257;28;20662;-79
2021/09/23 11:42:39;;;;;;;3.60;2.50;;;25.10;53.20;;;;;;4996341;28;20230;-79
2021/09/23 11:45:11;;;;;;;11.05;3.90;;;25.20;52.80;;;;;;4996461;28;20173;-79
2021/09/23 11:48:00;;;;;;;6.63;3.85;;;25.30;53.00;;;;;;4996732;28;20205;-79
2021/09/23 11:50:55;;;;;;;4.05;3.03;;;25.50;52.90;;;;;;4996493;28;20257;-79
2021/09/23 11:53:23;;;;;;;3.88;2.38;;;25.40;52.20;;;;;;4992648;28;20716;-79
2021/09/23 11:56:09;;;;;;;5.13;2.50;;;25.20;52.60;;;;;;4996848;28;20666;-79
2021/09/23 11:58:38;;;;;;;7.03;2.85;;;25.10;51.90;;;;;;4996131;28;20217;-79
2021/09/23 12:01:05;;;;;;;6.10;2.50;;;25.00;51.90;;;;;;4996258;28;20174;-79
2021/09/23 12:03:41;;;;;;;7.35;2.75;;;25.00;52.60;;;;;;4996255;28;20738;-79
2021/09/23 12:06:12;;;;;;;10.38;2.40;;;25.20;51.50;;;;;;4996362;28;20197;-80
2021/09/23 12:08:38;;;;;;;3.13;2.30;;;25.30;49.10;;;;;;4996600;28;20171;-79
2021/09/23 12:11:07;;;;;;;4.07;2.42;;;25.50;49.40;;;;;;4996523;28;20174;-79
2021/09/23 12:13:39;;;;;;;4.43;2.50;;;25.70;49.10;;;;;;4996673;28;20223;-79
2021/09/23 12:16:10;;;;;;;5.28;2.90;;;26.00;46.50;;;;;;4996245;28;20229;-79
2021/09/23 12:18:36;;;;;;;4.97;2.30;;;25.80;45.30;;;;;;4996685;28;20166;-79
2021/09/23 12:21:13;;;;;;;4.15;2.50;;;25.80;46.50;;;;;;4996795;28;20224;-79
2021/09/23 12:23:43;;;;;;;3.42;2.53;;;25.80;45.20;;;;;;4996364;28;20197;-79
2021/09/23 12:26:22;;;;;;;3.00;2.33;;;25.80;46.10;;;;;;4996578;28;20289;-79
2021/09/23 12:29:06;;;;;;;3.15;1.95;;;25.80;44.40;;;;;;5018393;23;20229;-81
2021/09/23 12:32:01;;;;;;;3.60;2.33;;;25.80;44.60;;;;;;5027330;28;20170;-80
2021/09/23 12:34:27;;;;;;;3.78;2.17;;;25.80;44.10;;;;;;5026320;28;20174;-81
2021/09/23 12:37:02;;;;;;;9.25;2.13;;;25.90;45.70;;;;;;5026094;28;20200;-82
2021/09/23 12:39:47;;;;;;;4.18;2.70;;;26.10;44.00;;;;;;5026547;28;20169;-80
2021/09/23 12:42:21;;;;;;;4.07;2.83;;;26.10;44.10;;;;;;5025480;28;20198;-80
2021/09/23 12:45:13;;;;;;;8.02;4.78;;;26.20;43.50;;;;;;5027627;28;20228;-82